Time;durP1;ratioP1;P1;durP2;ratioP2;P2;SDS_P1;SDS_P2;PMS_P1;PMS_P2;Temp;Humidity;BMP_temperature;BMP_pressure;BME280_temperature;BME280_humidity;BME280_pressure;Samples;Min_cycle;Max_cycle;Signal;HPM_P1;HPM_P2
2023/03/12 00:01:35;;;;;;;17.50;9.00;;;-0.90;99.90;;;;;;2603327;54;20033;31
2023/03/12 00:04:11;;;;;;;14.55;8.65;;;-0.90;99.90;;;;;;2621544;46;20036;31
2023/03/12 00:06:49;;;;;;;15.55;8.73;;;-0.90;99.90;;;;;;2603086;54;20106;31
2023/03/12 00:09:24;;;;;;;14.43;7.72;;;-0.90;99.90;;;;;;2603271;54;20026;31
2023/03/12 00:12:01;;;;;;;14.35;8.40;;;-0.90;99.90;;;;;;2621656;46;20097;31
2023/03/12 00:14:36;;;;;;;15.73;8.55;;;-0.90;99.90;;;;;;2608275;46;20022;31
2023/03/12 00:17:11;;;;;;;19.05;9.30;;;-0.90;99.90;;;;;;2603384;54;20030;31
2023/03/12 00:19:47;;;;;;;17.30;9.77;;;-0.90;99.90;;;;;;2621910;47;20034;31
2023/03/12 00:22:25;;;;;;;23.10;10.90;;;-0.90;99.90;;;;;;2603322;54;20109;31
2023/03/12 00:25:00;;;;;;;23.85;10.20;;;-0.90;99.90;;;;;;2603124;54;20090;31
2023/03/12 00:27:35;;;;;;;24.35;11.65;;;-0.90;99.90;;;;;;2603309;54;20034;31
2023/03/12 00:30:12;;;;;;;26.67;12.10;;;-0.90;99.90;;;;;;2603168;54;20042;31
2023/03/12 00:32:47;;;;;;;;;;;-0.90;99.90;;;;;;2603262;54;20037;31
2023/03/12 00:35:22;;;;;;;14.00;8.75;;;-0.90;99.90;;;;;;2603095;54;19938;31
2023/03/12 00:38:00;;;;;;;17.13;9.20;;;-1.00;99.90;;;;;;2603038;54;20030;31
2023/03/12 00:40:38;;;;;;;14.68;7.53;;;-1.00;99.90;;;;;;2603051;54;20082;31
2023/03/12 00:43:13;;;;;;;14.10;6.45;;;-1.00;99.90;;;;;;2603048;54;20133;31
2023/03/12 00:45:49;;;;;;;13.00;6.57;;;-1.00;99.90;;;;;;2602998;54;20037;31
2023/03/12 00:48:23;;;;;;;10.07;6.15;;;-1.00;99.90;;;;;;2701638;39;22517;31
2023/03/12 00:51:00;;;;;;;10.93;6.85;;;-1.00;99.90;;;;;;2603182;54;19969;31
2023/03/12 00:53:38;;;;;;;13.48;7.07;;;-0.90;99.90;;;;;;2602823;54;20054;31
2023/03/12 00:56:14;;;;;;;15.00;7.78;;;-1.00;99.90;;;;;;2603252;54;20855;31
2023/03/12 00:58:49;;;;;;;13.85;7.13;;;-1.00;99.90;;;;;;2603155;54;20046;31
2023/03/12 01:01:26;;;;;;;11.00;6.70;;;-1.10;99.90;;;;;;2621575;47;20852;31
2023/03/12 01:04:01;;;;;;;11.35;7.60;;;-1.10;99.90;;;;;;2602914;54;20121;31
2023/03/12 01:06:35;;;;;;;10.70;6.00;;;-1.00;99.90;;;;;;2621170;47;20885;31
2023/03/12 01:09:13;;;;;;;12.38;6.30;;;-1.00;99.90;;;;;;2603122;54;20101;31
2023/03/12 01:11:49;;;;;;;8.98;5.65;;;-1.00;99.90;;;;;;2622116;46;20053;31
2023/03/12 01:14:24;;;;;;;11.38;6.32;;;-1.00;99.90;;;;;;2603891;54;20026;31
2023/03/12 01:16:59;;;;;;;13.20;6.45;;;-1.00;99.90;;;;;;2603975;54;20046;31
2023/03/12 01:19:32;;;;;;;13.27;6.32;;;-1.00;99.90;;;;;;2702562;39;21031;31
2023/03/12 01:22:07;;;;;;;9.45;5.55;;;-1.10;99.90;;;;;;2603744;54;20118;31
2023/03/12 01:24:46;;;;;;;11.65;5.78;;;-1.00;99.90;;;;;;2603947;54;20053;31
2023/03/12 01:27:22;;;;;;;9.88;5.20;;;-1.00;99.90;;;;;;2603756;54;20042;31
2023/03/12 01:29:57;;;;;;;11.98;5.50;;;-0.90;99.90;;;;;;2603702;54;20026;31
2023/03/12 01:32:33;;;;;;;11.57;5.13;;;-0.90;99.90;;;;;;2603669;54;20056;31
2023/03/12 01:35:10;;;;;;;10.83;5.13;;;-1.00;99.90;;;;;;2603649;54;20924;31
2023/03/12 01:37:45;;;;;;;8.77;5.13;;;-1.00;99.90;;;;;;2603977;54;20052;31
2023/03/12 01:40:24;;;;;;;11.80;5.33;;;-1.00;99.90;;;;;;2603819;54;20030;31
2023/03/12 01:42:59;;;;;;;10.35;4.72;;;-1.00;99.90;;;;;;2603556;54;21099;31
2023/03/12 01:46:10;;;;;;;9.32;5.07;;;-1.00;99.90;;;;;;2603620;54;20093;31
2023/03/12 01:48:47;;;;;;;8.65;4.50;;;-1.00;99.90;;;;;;2603716;54;20033;31
2023/03/12 01:51:23;;;;;;;8.68;4.63;;;-1.00;99.90;;;;;;2603518;54;20842;31
2023/03/12 01:53:59;;;;;;;10.95;4.30;;;-1.00;99.90;;;;;;2622429;46;20890;31
2023/03/12 01:56:38;;;;;;;6.72;4.25;;;-1.00;99.90;;;;;;2603840;54;20026;31
2023/03/12 01:59:15;;;;;;;9.77;4.67;;;-1.00;99.90;;;;;;2603685;54;20927;31
2023/03/12 02:01:51;;;;;;;10.13;4.80;;;-1.00;99.90;;;;;;2603556;54;20269;31
2023/03/12 02:04:27;;;;;;;;;;;-0.90;99.90;;;;;;2604025;54;20819;31
2023/03/12 02:07:04;;;;;;;7.30;4.05;;;-1.00;99.90;;;;;;2622197;46;19946;31
2023/03/12 02:09:41;;;;;;;7.88;3.78;;;-1.00;99.90;;;;;;2622382;46;20065;31
2023/03/12 02:12:19;;;;;;;6.22;3.58;;;-1.00;99.90;;;;;;2612899;46;20136;31
2023/03/12 02:14:54;;;;;;;8.15;4.18;;;-1.00;99.90;;;;;;2603622;54;20811;31
2023/03/12 02:17:30;;;;;;;10.00;3.10;;;-1.00;99.90;;;;;;2603696;54;20052;31
2023/03/12 02:20:12;;;;;;;11.05;3.35;;;-1.00;99.90;;;;;;2603669;54;20085;31
2023/03/12 02:22:49;;;;;;;6.95;3.80;;;-1.00;99.90;;;;;;2603764;54;20026;31
2023/03/12 02:25:33;;;;;;;8.90;3.72;;;-1.00;99.90;;;;;;2603632;54;20057;31
2023/03/12 02:28:11;;;;;;;10.18;3.95;;;-0.90;99.90;;;;;;2603674;54;20873;31
2023/03/12 02:30:47;;;;;;;11.65;3.55;;;-0.90;99.90;;;;;;2603544;54;20121;31
2023/03/12 02:33:23;;;;;;;9.50;4.25;;;-0.90;99.90;;;;;;2603784;54;20038;31
2023/03/12 02:35:58;;;;;;;7.70;3.10;;;-0.90;99.90;;;;;;2622002;46;20867;31
2023/03/12 02:38:38;;;;;;;6.57;3.40;;;-0.90;99.90;;;;;;2603705;54;20239;31
2023/03/12 02:41:19;;;;;;;3.80;2.40;;;-0.90;99.90;;;;;;2603710;54;20029;31
2023/03/12 02:43:58;;;;;;;7.55;3.10;;;-0.90;99.90;;;;;;2603436;54;20771;31
2023/03/12 02:46:35;;;;;;;8.77;3.53;;;-0.80;99.90;;;;;;2603582;54;20037;31
2023/03/12 02:49:11;;;;;;;6.53;2.55;;;-0.80;99.90;;;;;;2621945;46;20022;31
2023/03/12 02:51:47;;;;;;;8.60;3.13;;;-0.80;99.90;;;;;;2621894;46;20103;31
2023/03/12 02:54:22;;;;;;;7.85;3.10;;;-0.80;99.90;;;;;;2622376;46;20838;31
2023/03/12 02:57:00;;;;;;;6.38;2.83;;;-0.80;99.90;;;;;;2603816;54;20206;31
2023/03/12 02:59:37;;;;;;;10.30;2.60;;;-0.80;99.90;;;;;;2603342;54;20026;31
2023/03/12 03:02:18;;;;;;;5.20;3.20;;;-0.80;99.90;;;;;;2603283;54;20141;31
2023/03/12 03:04:54;;;;;;;9.50;3.30;;;-0.80;99.90;;;;;;2603838;54;20054;31
2023/03/12 03:07:29;;;;;;;7.07;2.78;;;-0.80;99.90;;;;;;2603201;54;20062;31
2023/03/12 03:10:04;;;;;;;6.63;2.65;;;-0.80;99.90;;;;;;2621667;46;20855;31
2023/03/12 03:12:43;;;;;;;5.40;2.92;;;-0.80;99.90;;;;;;2621745;46;20042;31
2023/03/12 03:15:18;;;;;;;5.47;2.75;;;-0.80;99.90;;;;;;2603624;54;20121;31
2023/03/12 03:17:55;;;;;;;5.73;2.30;;;-0.80;99.90;;;;;;2603506;54;20038;31
2023/03/12 03:20:28;;;;;;;9.85;2.05;;;-0.80;99.90;;;;;;2603458;54;20026;31
2023/03/12 03:23:03;;;;;;;8.60;1.90;;;-0.80;99.90;;;;;;2621916;46;20795;31
2023/03/12 03:25:39;;;;;;;4.95;2.53;;;-0.80;99.90;;;;;;2603476;54;20030;31
2023/03/12 03:28:17;;;;;;;5.20;2.33;;;-0.80;99.90;;;;;;2603310;54;20166;31
2023/03/12 03:30:56;;;;;;;7.75;2.30;;;-0.80;99.90;;;;;;2603246;54;20042;31
2023/03/12 03:33:32;;;;;;;6.88;2.70;;;-0.80;99.90;;;;;;2603062;54;20819;31
2023/03/12 03:36:08;;;;;;;6.45;2.20;;;-0.80;99.90;;;;;;2603360;54;20038;31
2023/03/12 03:38:49;;;;;;;4.97;2.25;;;-0.80;99.90;;;;;;2603519;54;19977;31
2023/03/12 03:41:26;;;;;;;5.15;1.85;;;-0.80;99.90;;;;;;2603477;54;20042;31
2023/03/12 03:44:04;;;;;;;5.73;2.30;;;-0.80;99.90;;;;;;2603309;54;20895;31
2023/03/12 03:46:40;;;;;;;9.43;2.77;;;-0.80;99.90;;;;;;2607375;46;20099;31
2023/03/12 03:49:17;;;;;;;6.63;2.70;;;-0.80;99.90;;;;;;2603263;54;20309;31
2023/03/12 03:51:52;;;;;;;9.80;2.70;;;-0.80;99.90;;;;;;2603475;54;20331;31
2023/03/12 03:54:41;;;;;;;5.70;2.25;;;-0.80;99.90;;;;;;2603515;54;20042;31
2023/03/12 03:57:16;;;;;;;8.55;2.95;;;-0.70;99.90;;;;;;2603448;54;20928;31
2023/03/12 03:59:54;;;;;;;6.55;2.63;;;-0.80;99.90;;;;;;2603015;54;20046;31
2023/03/12 04:02:31;;;;;;;7.20;2.50;;;-0.80;99.90;;;;;;2603342;54;20054;31
2023/03/12 04:05:06;;;;;;;6.75;1.90;;;-0.80;99.90;;;;;;2603141;54;20038;31
2023/03/12 04:07:41;;;;;;;4.57;2.03;;;-0.80;99.90;;;;;;2603218;54;20026;31
2023/03/12 04:10:17;;;;;;;4.20;2.40;;;-0.80;99.90;;;;;;2603298;54;20874;31
2023/03/12 04:12:52;;;;;;;10.40;2.65;;;-0.80;99.90;;;;;;2621606;46;20038;31
2023/03/12 04:15:29;;;;;;;4.88;2.13;;;-0.80;99.90;;;;;;2603298;54;20097;31
2023/03/12 04:18:05;;;;;;;6.63;1.73;;;-0.80;99.90;;;;;;2603467;54;20077;31
2023/03/12 04:20:38;;;;;;;4.93;2.00;;;-0.80;99.90;;;;;;2621242;47;21811;31
2023/03/12 04:23:14;;;;;;;5.85;2.10;;;-0.70;99.90;;;;;;2602824;54;20027;31
2023/03/12 04:25:49;;;;;;;4.55;2.05;;;-0.70;99.90;;;;;;2621768;47;20893;31
2023/03/12 04:28:24;;;;;;;7.63;2.45;;;-0.70;99.90;;;;;;2603236;54;19942;31
2023/03/12 04:31:01;;;;;;;4.23;1.83;;;-0.70;99.90;;;;;;2701786;39;20964;31
2023/03/12 04:33:42;;;;;;;6.35;2.30;;;-0.60;99.90;;;;;;2603189;54;20873;31
2023/03/12 04:36:17;;;;;;;4.80;2.25;;;-0.60;99.90;;;;;;2603115;54;20963;31
2023/03/12 04:38:55;;;;;;;5.35;2.40;;;-0.60;99.90;;;;;;2603373;54;19950;31
2023/03/12 04:41:36;;;;;;;4.80;2.15;;;-0.50;99.90;;;;;;2603065;54;20085;31
2023/03/12 04:44:15;;;;;;;5.10;2.25;;;-0.50;99.90;;;;;;2603852;54;20135;31
2023/03/12 04:46:54;;;;;;;7.60;2.53;;;-0.50;99.90;;;;;;2603945;54;20053;31
2023/03/12 04:49:32;;;;;;;8.27;2.65;;;-0.50;99.90;;;;;;2603863;54;20069;31
2023/03/12 04:52:08;;;;;;;;;;;-0.50;99.90;;;;;;2610461;46;20029;31
2023/03/12 04:54:43;;;;;;;6.23;2.63;;;-0.50;99.90;;;;;;2622754;46;20780;31
2023/03/12 04:57:23;;;;;;;5.13;2.75;;;-0.50;99.90;;;;;;2603924;54;20056;31
2023/03/12 04:59:58;;;;;;;7.37;2.40;;;-0.50;99.90;;;;;;2622172;46;20046;31
2023/03/12 05:02:36;;;;;;;8.15;3.58;;;-0.50;99.90;;;;;;2603566;54;20076;31
2023/03/12 05:05:12;;;;;;;7.03;2.92;;;-0.50;99.90;;;;;;2603872;54;20828;31
2023/03/12 05:07:47;;;;;;;9.23;3.20;;;-0.50;99.90;;;;;;2603836;54;20906;31
2023/03/12 05:10:22;;;;;;;6.80;3.17;;;-0.50;99.90;;;;;;2604073;54;20085;31
2023/03/12 05:12:57;;;;;;;6.15;2.60;;;-0.50;99.90;;;;;;2603889;54;20168;31
2023/03/12 05:15:32;;;;;;;5.80;2.63;;;-0.40;99.90;;;;;;2702608;39;21037;31
2023/03/12 05:18:12;;;;;;;6.85;2.55;;;-0.40;99.90;;;;;;2622439;46;20998;31
2023/03/12 05:20:47;;;;;;;5.80;2.33;;;-0.40;99.90;;;;;;2603793;54;20060;31
2023/03/12 05:23:22;;;;;;;9.07;2.60;;;-0.50;99.90;;;;;;2603882;54;21109;31
2023/03/12 05:26:00;;;;;;;5.07;2.10;;;-0.50;99.90;;;;;;2603779;54;20106;31
2023/03/12 05:28:34;;;;;;;6.47;2.83;;;-0.50;99.90;;;;;;2622609;46;20877;31
2023/03/12 05:31:11;;;;;;;6.65;2.05;;;-0.50;99.90;;;;;;2603987;54;20052;31
2023/03/12 05:33:49;;;;;;;4.80;2.25;;;-0.50;99.90;;;;;;2622112;46;20026;31
2023/03/12 05:36:27;;;;;;;8.20;2.22;;;-0.50;99.90;;;;;;2603754;54;20042;31
2023/03/12 05:39:03;;;;;;;6.35;1.90;;;-0.40;99.90;;;;;;2621593;46;20027;31
2023/03/12 05:41:41;;;;;;;4.10;1.75;;;-0.40;99.90;;;;;;2603602;54;20797;31
2023/03/12 05:44:23;;;;;;;8.15;1.70;;;-0.30;99.90;;;;;;2621895;46;20129;31
2023/03/12 05:47:01;;;;;;;5.10;2.17;;;-0.30;99.90;;;;;;2603654;54;20034;31
2023/03/12 05:49:39;;;;;;;9.00;1.90;;;-0.20;99.90;;;;;;2603804;54;20053;31
2023/03/12 05:52:14;;;;;;;8.45;2.50;;;-0.20;99.90;;;;;;2603881;54;20061;31
2023/03/12 05:54:50;;;;;;;6.05;1.90;;;0.00;99.90;;;;;;2621841;46;20049;31
2023/03/12 05:57:26;;;;;;;4.72;1.60;;;0.00;99.90;;;;;;2603683;54;20093;31
2023/03/12 06:00:03;;;;;;;4.85;1.55;;;0.00;99.90;;;;;;2603704;54;20117;31
2023/03/12 06:02:46;;;;;;;4.50;2.00;;;0.30;99.90;;;;;;2603758;54;20030;31
2023/03/12 06:05:24;;;;;;;3.35;1.50;;;0.70;99.90;;;;;;2603581;54;20762;31
2023/03/12 06:08:04;;;;;;;6.10;1.95;;;0.90;99.90;;;;;;2603644;54;20030;31
2023/03/12 06:10:39;;;;;;;5.90;2.17;;;1.00;99.90;;;;;;2603794;54;19941;31
2023/03/12 06:13:15;;;;;;;4.37;1.60;;;1.20;99.90;;;;;;2603746;54;20050;31
2023/03/12 06:15:50;;;;;;;8.05;2.08;;;1.60;99.90;;;;;;2622437;46;20278;31
2023/03/12 06:18:25;;;;;;;;;;;2.00;99.90;;;;;;2603813;54;20089;31
2023/03/12 06:21:13;;;;;;;4.43;1.48;;;2.50;99.90;;;;;;2603352;54;19934;31
2023/03/12 06:23:48;;;;;;;7.30;1.73;;;3.10;99.90;;;;;;2603385;54;20949;31
2023/03/12 06:26:34;;;;;;;4.75;1.70;;;3.60;99.90;;;;;;2603610;54;20117;31
2023/03/12 06:29:11;;;;;;;7.40;1.50;;;4.10;99.90;;;;;;2622197;46;20030;31
2023/03/12 06:31:47;;;;;;;4.85;1.80;;;4.40;99.90;;;;;;2603381;54;20110;31
2023/03/12 06:34:23;;;;;;;5.38;1.58;;;4.80;99.90;;;;;;2603360;54;25050;31
2023/03/12 06:37:04;;;;;;;6.25;1.80;;;5.20;99.90;;;;;;2603504;54;20675;31
2023/03/12 06:39:38;;;;;;;5.88;1.63;;;5.40;99.90;;;;;;2603567;54;20175;31
2023/03/12 06:42:14;;;;;;;5.03;1.67;;;5.80;99.90;;;;;;2603608;54;20061;31
2023/03/12 06:44:49;;;;;;;5.20;2.10;;;6.20;99.90;;;;;;2603396;54;20861;31
2023/03/12 06:47:25;;;;;;;7.83;1.53;;;6.40;99.90;;;;;;2603593;54;20183;31
2023/03/12 06:50:00;;;;;;;6.90;1.90;;;6.40;99.90;;;;;;2603496;54;21194;31
2023/03/12 06:52:39;;;;;;;4.20;1.37;;;6.50;99.90;;;;;;2603429;54;20056;31
2023/03/12 06:55:14;;;;;;;4.38;1.63;;;6.50;99.90;;;;;;2603599;54;20883;31
2023/03/12 06:57:49;;;;;;;2.97;1.35;;;6.60;99.90;;;;;;2621940;46;20862;31
2023/03/12 07:00:25;;;;;;;3.08;1.30;;;6.60;99.90;;;;;;2603619;54;20891;31
2023/03/12 07:03:03;;;;;;;2.58;1.15;;;6.80;99.90;;;;;;2603413;54;20026;31
2023/03/12 07:05:40;;;;;;;3.88;1.90;;;6.80;99.90;;;;;;2622109;46;20026;31
2023/03/12 07:08:18;;;;;;;5.95;1.75;;;7.00;99.90;;;;;;2603408;54;20874;31
2023/03/12 07:10:53;;;;;;;3.80;1.40;;;7.20;99.90;;;;;;2603669;54;20085;31
2023/03/12 07:13:28;;;;;;;5.93;1.70;;;7.40;99.90;;;;;;2621894;46;20054;31
2023/03/12 07:16:03;;;;;;;6.90;2.60;;;7.40;99.90;;;;;;2621851;46;20089;31
2023/03/12 07:18:38;;;;;;;4.75;1.73;;;7.50;99.90;;;;;;2603323;54;20921;31
2023/03/12 07:21:15;;;;;;;4.07;1.67;;;7.50;99.90;;;;;;2603474;54;20937;31
2023/03/12 07:23:53;;;;;;;2.35;1.40;;;7.10;99.90;;;;;;2621794;46;20061;31
2023/03/12 07:26:27;;;;;;;5.65;1.85;;;6.60;99.90;;;;;;2773429;31;25651;31
2023/03/12 07:29:02;;;;;;;4.55;1.88;;;6.20;99.90;;;;;;2603061;54;20105;31
2023/03/12 07:31:36;;;;;;;4.70;2.03;;;5.80;99.90;;;;;;2702139;39;22360;31
2023/03/12 07:34:12;;;;;;;5.72;1.98;;;5.50;99.90;;;;;;2603151;54;19955;31
2023/03/12 07:36:48;;;;;;;5.72;2.05;;;5.20;99.90;;;;;;2603617;54;20932;31
2023/03/12 07:39:26;;;;;;;4.75;1.50;;;4.90;99.90;;;;;;2621957;46;20053;31
2023/03/12 07:42:01;;;;;;;5.07;1.73;;;4.60;99.90;;;;;;2621906;46;20033;31
2023/03/12 07:44:38;;;;;;;5.55;2.35;;;4.40;99.90;;;;;;2603041;54;20126;31
2023/03/12 07:47:13;;;;;;;5.20;1.77;;;4.20;99.90;;;;;;2603390;54;20057;31
2023/03/12 07:49:59;;;;;;;5.60;2.30;;;4.00;99.90;;;;;;2621819;46;20026;31
2023/03/12 07:52:34;;;;;;;7.35;2.55;;;4.00;99.90;;;;;;2602701;54;20208;31
2023/03/12 07:55:15;;;;;;;7.88;2.03;;;3.80;99.90;;;;;;2603000;54;20048;31
2023/03/12 07:57:50;;;;;;;4.90;2.20;;;3.80;99.90;;;;;;2621614;46;20039;31
2023/03/12 08:00:25;;;;;;;4.15;1.75;;;3.80;99.90;;;;;;2701133;39;21203;31
2023/03/12 08:03:01;;;;;;;4.40;1.70;;;3.70;99.90;;;;;;2603159;54;20038;31
2023/03/12 08:05:37;;;;;;;;;;;3.70;99.90;;;;;;2621524;46;20905;31
2023/03/12 08:08:13;;;;;;;5.35;2.35;;;3.80;99.90;;;;;;2603195;54;19934;31
2023/03/12 08:10:51;;;;;;;7.03;1.90;;;3.90;99.90;;;;;;2603240;54;20056;31
2023/03/12 08:13:26;;;;;;;5.17;2.10;;;4.10;99.90;;;;;;2603206;54;20935;31
2023/03/12 08:16:03;;;;;;;10.05;2.08;;;4.20;99.90;;;;;;2603067;54;20870;31
2023/03/12 08:18:38;;;;;;;3.50;1.75;;;4.30;99.90;;;;;;2603081;54;20042;31
2023/03/12 08:21:15;;;;;;;5.55;2.00;;;4.40;99.90;;;;;;2603024;54;20034;31
2023/03/12 08:23:51;;;;;;;3.03;1.60;;;4.50;99.90;;;;;;2603174;54;20027;31
2023/03/12 08:26:29;;;;;;;6.57;2.50;;;5.00;99.90;;;;;;2603093;54;20246;31
2023/03/12 08:29:04;;;;;;;6.65;2.30;;;5.30;99.90;;;;;;2603382;54;20046;31
2023/03/12 08:31:39;;;;;;;9.05;4.20;;;5.60;99.90;;;;;;2621492;47;20031;31
2023/03/12 08:34:36;;;;;;;3.75;2.20;;;5.80;99.90;;;;;;2621629;47;20234;31
2023/03/12 08:37:14;;;;;;;5.78;2.78;;;6.10;99.90;;;;;;2603251;54;20823;31
2023/03/12 08:39:49;;;;;;;;;;;6.50;99.90;;;;;;2621414;47;20820;31
2023/03/12 08:42:29;;;;;;;5.33;2.30;;;6.80;99.90;;;;;;2621712;47;19950;31
2023/03/12 08:45:05;;;;;;;3.20;1.90;;;7.20;99.90;;;;;;2621097;47;19941;31
2023/03/12 08:47:42;;;;;;;5.57;2.40;;;7.50;99.90;;;;;;2603204;54;20023;31
2023/03/12 08:50:19;;;;;;;4.60;2.00;;;7.70;99.90;;;;;;2621746;47;20085;31
2023/03/12 08:53:01;;;;;;;7.40;3.35;;;8.10;99.90;;;;;;2621747;47;20246;31
2023/03/12 08:55:36;;;;;;;8.40;2.20;;;8.40;99.90;;;;;;2621520;47;20102;31
2023/03/12 08:58:15;;;;;;;6.20;2.10;;;8.60;99.90;;;;;;2603267;54;20293;31
2023/03/12 09:00:51;;;;;;;3.15;1.58;;;8.90;99.90;;;;;;2621629;47;20753;31
2023/03/12 09:03:26;;;;;;;4.22;1.75;;;9.00;99.90;;;;;;2603112;54;20030;31
2023/03/12 09:06:12;;;;;;;4.95;3.90;;;9.20;99.90;;;;;;2608088;47;20035;31
2023/03/12 09:08:48;;;;;;;6.73;3.17;;;9.50;99.90;;;;;;2603009;54;20027;31
2023/03/12 09:11:26;;;;;;;7.20;3.15;;;9.70;99.90;;;;;;2602949;54;21171;31
2023/03/12 09:14:01;;;;;;;5.70;2.55;;;9.60;99.90;;;;;;2602966;54;20902;31
2023/03/12 09:16:58;;;;;;;6.88;3.20;;;9.70;99.90;;;;;;2602984;54;20767;31
2023/03/12 09:19:34;;;;;;;10.10;5.05;;;9.70;99.90;;;;;;2603215;54;20026;31
2023/03/12 09:22:10;;;;;;;7.95;2.90;;;9.50;99.90;;;;;;2603405;54;20059;31
2023/03/12 09:24:45;;;;;;;;;;;9.30;99.90;;;;;;2603057;54;20089;31
2023/03/12 09:27:20;;;;;;;6.70;1.95;;;9.30;99.90;;;;;;2603063;47;19943;31
2023/03/12 09:29:56;;;;;;;4.38;1.98;;;9.40;99.90;;;;;;2619814;47;20001;31
2023/03/12 09:32:38;;;;;;;5.07;2.20;;;9.60;99.90;;;;;;2621952;46;20109;31
2023/03/12 09:35:13;;;;;;;4.35;1.95;;;9.70;99.90;;;;;;2603747;54;20038;31
2023/03/12 09:37:51;;;;;;;4.82;1.70;;;9.70;99.90;;;;;;2603852;54;20077;31
2023/03/12 09:40:31;;;;;;;5.85;1.80;;;9.90;99.90;;;;;;2603769;54;20059;31
2023/03/12 09:43:05;;;;;;;4.43;1.58;;;9.90;99.90;;;;;;2603878;54;20913;31
2023/03/12 09:45:41;;;;;;;3.15;1.60;;;9.60;99.90;;;;;;2609147;46;20049;31
2023/03/12 09:48:19;;;;;;;;;;;9.20;99.90;;;;;;2604356;54;20027;31
2023/03/12 09:50:55;;;;;;;4.80;1.58;;;8.80;99.90;;;;;;2621865;46;20797;31
2023/03/12 09:53:31;;;;;;;4.65;1.30;;;8.60;99.90;;;;;;2603729;54;20847;31
2023/03/12 09:56:09;;;;;;;3.40;1.40;;;8.70;99.90;;;;;;2603609;54;20026;31
2023/03/12 09:58:47;;;;;;;3.40;1.10;;;9.00;99.90;;;;;;2603718;54;20056;31
2023/03/12 10:01:38;;;;;;;4.32;1.13;;;9.00;99.90;;;;;;2603778;54;20090;31
2023/03/12 10:04:32;;;;;;;3.33;1.27;;;8.90;99.90;;;;;;2603742;54;19934;31
2023/03/12 10:07:20;;;;;;;5.20;1.70;;;8.70;99.90;;;;;;2604027;54;20099;31
2023/03/12 10:10:13;;;;;;;3.17;1.15;;;8.50;99.90;;;;;;2603620;54;20899;31
2023/03/12 10:12:56;;;;;;;2.40;1.25;;;8.50;99.90;;;;;;2603963;54;20026;31
2023/03/12 10:15:38;;;;;;;4.47;1.20;;;8.60;99.90;;;;;;2603545;54;20044;31
2023/03/12 10:18:17;;;;;;;3.55;1.25;;;8.40;99.90;;;;;;2610203;39;21106;31
2023/03/12 10:21:02;;;;;;;4.30;1.17;;;8.40;99.90;;;;;;2603731;54;20876;31
2023/03/12 10:23:40;;;;;;;4.30;1.20;;;8.20;99.90;;;;;;2614525;31;21152;31
2023/03/12 10:26:17;;;;;;;3.75;1.50;;;8.00;99.90;;;;;;2603432;54;20061;31
2023/03/12 10:28:55;;;;;;;4.45;1.35;;;7.80;99.90;;;;;;2603590;54;20903;31
2023/03/12 10:31:31;;;;;;;3.65;1.40;;;7.50;99.90;;;;;;2603260;54;20022;31
2023/03/12 10:34:15;;;;;;;4.28;1.80;;;7.70;99.90;;;;;;2603668;54;20077;31
2023/03/12 10:36:54;;;;;;;10.80;3.88;;;7.60;99.90;;;;;;2603462;54;20972;31
2023/03/12 10:42:04;;;;;;;3.30;1.38;;;7.90;99.90;;;;;;2622014;46;20901;31
2023/03/12 10:44:39;;;;;;;4.40;2.10;;;7.90;99.90;;;;;;2603566;54;20034;31
2023/03/12 10:47:30;;;;;;;7.00;2.30;;;7.80;99.90;;;;;;2603450;54;20063;31
2023/03/12 10:50:16;;;;;;;3.85;1.50;;;7.90;99.90;;;;;;2603290;54;20027;31
2023/03/12 10:52:56;;;;;;;4.00;1.38;;;8.00;99.90;;;;;;2603505;54;20023;31
2023/03/12 10:55:34;;;;;;;3.50;1.20;;;7.90;99.90;;;;;;2603677;54;20050;31
2023/03/12 10:58:09;;;;;;;3.45;1.20;;;7.90;99.90;;;;;;2625720;46;20935;31
2023/03/12 11:00:43;;;;;;;5.00;1.45;;;7.80;99.90;;;;;;2603420;54;20057;31
2023/03/12 11:03:22;;;;;;;4.70;1.40;;;7.70;99.90;;;;;;2603563;54;20930;31
2023/03/12 11:05:58;;;;;;;5.35;1.30;;;7.80;99.90;;;;;;2603372;54;20910;31
2023/03/12 11:08:37;;;;;;;5.47;1.45;;;8.00;99.90;;;;;;2603585;54;20031;31
2023/03/12 11:11:13;;;;;;;6.32;1.40;;;8.00;99.90;;;;;;2603750;54;20034;31
2023/03/12 11:13:46;;;;;;;3.83;1.57;;;7.90;99.90;;;;;;2622325;39;21106;31
2023/03/12 11:16:27;;;;;;;4.43;1.33;;;7.90;99.90;;;;;;2621654;46;20914;31
2023/03/12 11:19:03;;;;;;;6.67;1.53;;;7.80;99.90;;;;;;2603466;54;20030;31
2023/03/12 11:21:39;;;;;;;5.40;1.95;;;7.80;99.90;;;;;;2603298;54;21105;31
2023/03/12 11:24:17;;;;;;;5.70;2.50;;;7.60;99.90;;;;;;2603481;54;20042;31
2023/03/12 11:26:52;;;;;;;4.20;1.40;;;7.60;99.90;;;;;;2603535;54;20046;31
2023/03/12 11:29:30;;;;;;;4.85;1.50;;;7.70;99.90;;;;;;2603487;54;20140;31
2023/03/12 11:32:08;;;;;;;8.13;2.58;;;7.70;99.90;;;;;;2603985;46;20022;31
2023/03/12 11:34:46;;;;;;;3.50;1.50;;;7.90;99.90;;;;;;2603160;54;20022;31
2023/03/12 11:37:21;;;;;;;;;;;8.00;99.90;;;;;;2603599;54;19930;31
2023/03/12 11:40:08;;;;;;;31.58;3.67;;;8.30;99.90;;;;;;2608093;54;19939;-78
2023/03/12 11:42:52;;;;;;;8.05;1.55;;;8.50;99.90;;;;;;2609324;54;20019;31
2023/03/12 11:45:28;;;;;;;5.90;1.80;;;8.70;99.90;;;;;;2614030;31;21158;31
2023/03/12 11:48:09;;;;;;;3.03;1.40;;;8.70;99.90;;;;;;2611388;54;20140;31
2023/03/12 11:51:02;;;;;;;7.50;1.50;;;8.70;99.90;;;;;;2609727;39;22447;31
2023/03/12 11:53:54;;;;;;;5.35;1.40;;;8.60;99.90;;;;;;2603313;54;20863;31
2023/03/12 11:56:32;;;;;;;4.90;1.77;;;8.50;99.90;;;;;;2603293;54;20026;31
2023/03/12 11:59:23;;;;;;;3.90;1.55;;;8.40;99.90;;;;;;2603606;54;20876;31
2023/03/12 12:02:04;;;;;;;4.90;1.75;;;8.30;99.90;;;;;;2603199;54;20037;31
2023/03/12 12:05:11;;;;;;;3.50;1.60;;;8.30;99.90;;;;;;2603250;54;20022;31
2023/03/12 12:07:51;;;;;;;3.67;1.10;;;8.30;99.90;;;;;;2607203;46;20022;31
2023/03/12 12:10:28;;;;;;;5.88;1.98;;;8.20;99.90;;;;;;2621707;46;20281;31
2023/03/12 12:13:10;;;;;;;6.03;1.25;;;8.10;99.90;;;;;;2603230;54;20038;31
2023/03/12 12:15:47;;;;;;;4.65;1.65;;;8.00;99.90;;;;;;2605241;47;20027;31
2023/03/12 12:18:45;;;;;;;4.63;1.70;;;8.00;99.90;;;;;;2603167;54;20057;31
2023/03/12 12:21:29;;;;;;;4.20;2.05;;;8.00;99.90;;;;;;2603374;54;20114;31
2023/03/12 12:24:08;;;;;;;5.28;1.95;;;8.00;99.90;;;;;;2621686;47;20141;31
2023/03/12 12:26:46;;;;;;;4.82;1.60;;;8.10;99.90;;;;;;2603026;54;20133;31
2023/03/12 12:29:49;;;;;;;3.83;1.60;;;8.00;99.90;;;;;;2603456;54;20029;31
2023/03/12 12:32:25;;;;;;;4.38;1.98;;;8.10;99.90;;;;;;2603236;54;20030;31
2023/03/12 12:35:06;;;;;;;4.53;1.42;;;8.10;99.90;;;;;;2603325;54;19939;31
2023/03/12 12:37:46;;;;;;;3.50;1.50;;;8.10;99.90;;;;;;2603313;54;20026;31
2023/03/12 12:40:22;;;;;;;2.28;1.10;;;8.10;99.90;;;;;;2603702;47;20067;31
2023/03/12 12:43:24;;;;;;;6.03;1.80;;;8.10;99.90;;;;;;2603031;54;20072;31
2023/03/12 12:46:02;;;;;;;5.93;2.67;;;8.10;99.90;;;;;;2602964;54;20022;31
2023/03/12 12:48:38;;;;;;;9.00;2.50;;;8.10;99.90;;;;;;2603183;54;20026;31
2023/03/12 12:51:13;;;;;;;4.20;1.80;;;8.10;99.90;;;;;;2603308;54;20042;31
2023/03/12 12:53:49;;;;;;;7.75;2.03;;;8.10;99.90;;;;;;2602998;54;20054;31
2023/03/12 12:56:25;;;;;;;4.23;1.87;;;8.20;99.90;;;;;;2603026;54;20090;31
2023/03/12 12:59:20;;;;;;;3.60;2.22;;;8.40;99.90;;;;;;2609309;39;21070;31
2023/03/12 13:01:58;;;;;;;7.65;2.47;;;8.40;99.90;;;;;;2603551;47;20966;31
2023/03/12 13:04:34;;;;;;;5.00;2.00;;;8.40;99.90;;;;;;2631200;47;20899;31
2023/03/12 13:07:32;;;;;;;5.40;2.00;;;8.40;99.90;;;;;;2610286;39;22233;31
2023/03/12 13:10:09;;;;;;;6.05;2.05;;;8.30;99.90;;;;;;2604071;54;20107;31
2023/03/12 13:12:45;;;;;;;6.18;1.92;;;8.30;99.90;;;;;;2603859;54;20030;31
2023/03/12 13:15:38;;;;;;;7.07;2.20;;;8.40;99.90;;;;;;2603799;54;20934;31
2023/03/12 13:18:26;;;;;;;7.00;2.63;;;8.40;99.90;;;;;;2610293;39;21030;31
2023/03/12 13:21:21;;;;;;;6.43;1.95;;;8.40;99.90;;;;;;2603771;54;20112;31
2023/03/12 13:24:00;;;;;;;3.80;1.30;;;8.40;99.90;;;;;;2603564;54;20034;31
2023/03/12 13:26:46;;;;;;;4.75;1.75;;;8.40;99.90;;;;;;2604595;46;20074;31
2023/03/12 13:29:38;;;;;;;4.20;1.33;;;8.30;99.90;;;;;;2603921;54;20097;31
2023/03/12 13:32:51;;;;;;;4.28;1.80;;;8.20;99.90;;;;;;2603751;54;20073;31
2023/03/12 13:35:38;;;;;;;3.80;1.70;;;8.10;99.90;;;;;;2622351;46;20033;31
2023/03/12 13:38:14;;;;;;;5.18;1.70;;;8.10;99.90;;;;;;2603971;54;20022;31
2023/03/12 13:40:59;;;;;;;7.55;2.72;;;8.00;99.90;;;;;;2603791;54;20026;31
2023/03/12 13:43:32;;;;;;;7.45;3.00;;;8.10;99.90;;;;;;2603845;54;20027;31
2023/03/12 13:46:09;;;;;;;5.85;2.50;;;8.20;99.90;;;;;;2621892;46;20932;31
2023/03/12 13:48:47;;;;;;;4.82;1.40;;;8.20;99.90;;;;;;2603813;54;20042;31
2023/03/12 13:51:26;;;;;;;3.63;1.60;;;8.20;99.90;;;;;;2603731;54;20022;31
2023/03/12 13:54:02;;;;;;;9.02;1.90;;;8.10;99.90;;;;;;2603692;54;20031;31
2023/03/12 13:56:37;;;;;;;;;;;8.10;99.90;;;;;;2604059;54;20042;31
2023/03/12 13:59:11;;;;;;;7.25;2.38;;;8.00;99.90;;;;;;2603699;54;20009;31
2023/03/12 14:01:49;;;;;;;4.47;1.57;;;8.00;99.90;;;;;;2603543;54;20026;31
2023/03/12 14:04:25;;;;;;;5.00;2.08;;;8.10;99.90;;;;;;2603016;54;20254;31
2023/03/12 14:07:14;;;;;;;4.40;1.60;;;8.10;99.90;;;;;;2622065;46;20022;31